createdAt,value
2018-12-15T00:04:51.641Z,18.07
2018-12-15T00:10:02.625Z,18.70
2018-12-15T00:15:16.651Z,17.62
2018-12-15T00:20:27.645Z,18.23
2018-12-15T00:25:37.863Z,16.77
2018-12-15T00:30:48.601Z,18.00
2018-12-15T00:35:59.853Z,16.32
2018-12-15T00:41:10.687Z,18.50
2018-12-15T00:46:21.365Z,16.75
2018-12-15T00:51:36.307Z,16.90
2018-12-15T00:56:48.610Z,16.48
2018-12-15T01:01:59.756Z,17.55
2018-12-15T01:07:10.507Z,16.45
2018-12-15T01:12:21.643Z,16.00
2018-12-15T01:17:32.826Z,16.27
2018-12-15T01:28:07.740Z,16.93
2018-12-15T01:33:19.628Z,15.88
2018-12-15T01:38:31.863Z,16.37
2018-12-15T01:43:46.627Z,15.68
2018-12-15T01:48:57.250Z,16.35
2018-12-15T01:54:22.691Z,15.95
2018-12-15T01:59:34.598Z,16.17
2018-12-15T02:07:58.265Z,17.00
2018-12-15T02:13:09.042Z,15.70
2018-12-15T02:18:20.609Z,15.68
2018-12-15T02:23:33.383Z,16.17
2018-12-15T02:28:44.629Z,15.43
2018-12-15T02:39:08.201Z,16.32
2018-12-15T02:47:31.653Z,16.77
2018-12-15T02:52:46.707Z,16.65
2018-12-15T02:59:52.351Z,17.30
2018-12-15T03:05:03.877Z,16.75
2018-12-15T03:10:27.716Z,17.02
2018-12-15T03:15:38.565Z,17.42
2018-12-15T03:21:03.384Z,17.60
2018-12-15T03:26:14.618Z,18.35
2018-12-15T03:31:46.443Z,18.45
2018-12-15T03:36:59.775Z,17.95
2018-12-15T03:42:10.613Z,17.90
2018-12-15T03:47:21.682Z,18.57
2018-12-15T03:52:35.801Z,17.98
2018-12-15T03:57:46.672Z,18.23
2018-12-15T04:03:00.629Z,18.32
2018-12-15T04:08:11.734Z,18.12
2018-12-15T04:13:26.901Z,17.40
2018-12-15T04:18:38.316Z,18.30
2018-12-15T04:27:01.680Z,19.30
2018-12-15T04:32:12.806Z,18.87
2018-12-15T04:37:23.622Z,18.40
2018-12-15T04:42:38.904Z,18.87
2018-12-15T04:47:49.629Z,18.48
2018-12-15T04:53:06.814Z,18.60
2018-12-15T04:58:18.393Z,18.45
2018-12-15T05:03:39.915Z,17.87
2018-12-15T05:08:50.883Z,17.95
2018-12-15T05:14:01.596Z,17.70
2018-12-15T05:19:12.828Z,18.90
2018-12-15T05:24:36.617Z,17.85
2018-12-15T05:29:52.527Z,18.82
2018-12-15T05:35:03.865Z,17.85
2018-12-15T05:40:17.699Z,17.70
2018-12-15T05:45:28.642Z,18.02
2018-12-15T05:50:43.611Z,17.25
2018-12-15T05:55:54.671Z,17.87
2018-12-15T06:01:35.724Z,17.37
2018-12-15T06:06:46.861Z,15.10
2018-12-15T06:12:10.834Z,13.20
2018-12-15T06:17:21.643Z,12.47
2018-12-15T06:22:34.843Z,11.10
2018-12-15T06:27:45.628Z,10.70
2018-12-15T06:32:59.616Z,9.77
2018-12-15T06:38:18.595Z,9.60
2018-12-15T06:43:30.312Z,9.20
2018-12-15T06:48:41.770Z,10.57
2018-12-15T06:53:52.883Z,10.80
2018-12-15T06:59:08.699Z,10.60
2018-12-15T07:04:19.840Z,10.77
2018-12-15T07:09:30.917Z,12.30
2018-12-15T07:14:41.721Z,12.00
2018-12-15T07:19:56.879Z,12.20
2018-12-15T07:25:07.348Z,13.05
2018-12-15T07:30:19.238Z,11.70
2018-12-15T07:35:30.706Z,13.05
2018-12-15T07:40:41.755Z,12.47
2018-12-15T07:45:52.898Z,11.63
2018-12-15T07:51:22.633Z,12.33
2018-12-15T07:56:33.644Z,11.03
2018-12-15T08:02:21.655Z,11.45
2018-12-15T08:07:32.740Z,11.83
2018-12-15T08:13:00.527Z,11.55
2018-12-15T08:18:12.544Z,12.00
2018-12-15T08:23:32.630Z,11.48
2018-12-15T08:28:52.861Z,11.50
2018-12-15T08:34:19.729Z,11.63
2018-12-15T08:39:30.905Z,11.65
2018-12-15T08:49:34.664Z,11.55
2018-12-15T08:54:49.488Z,10.82
2018-12-15T09:00:12.456Z,11.73
2018-12-15T09:05:39.944Z,11.45
2018-12-15T09:10:51.660Z,10.93
2018-12-15T09:16:03.217Z,11.10
2018-12-15T09:21:40.942Z,10.93
2018-12-15T09:26:51.642Z,11.18
2018-12-15T09:32:06.686Z,11.18
2018-12-15T09:37:20.191Z,15.35
2018-12-15T09:42:37.802Z,13.15
2018-12-15T09:47:49.833Z,11.22
2018-12-15T09:53:16.682Z,12.33
2018-12-15T09:58:28.224Z,12.10
2018-12-15T10:03:43.687Z,12.20
2018-12-15T10:08:54.777Z,11.88
2018-12-15T10:14:06.508Z,11.45
2018-12-15T10:19:24.074Z,11.28
2018-12-15T10:27:32.277Z,11.38
2018-12-15T10:32:55.625Z,11.18
2018-12-15T10:38:07.623Z,10.82
2018-12-15T10:43:24.567Z,10.45
2018-12-15T10:48:36.312Z,11.73
2018-12-15T10:56:59.230Z,11.63
2018-12-15T11:08:01.887Z,11.05
2018-12-15T11:13:17.396Z,12.43
2018-12-15T11:18:28.813Z,10.40
2018-12-15T11:24:05.881Z,12.07
2018-12-15T11:34:47.957Z,11.85
2018-12-15T11:40:01.552Z,10.97
2018-12-15T11:45:12.838Z,12.95
2018-12-15T11:50:23.675Z,11.25
2018-12-15T11:55:34.729Z,11.63
2018-12-15T12:01:16.010Z,11.15
2018-12-15T12:06:26.593Z,11.28
2018-12-15T12:11:48.302Z,11.20
2018-12-15T12:16:59.702Z,10.50
2018-12-15T12:22:20.795Z,11.48
2018-12-15T12:27:31.908Z,13.95
2018-12-15T12:32:46.543Z,11.60
2018-12-15T12:37:58.373Z,12.28
2018-12-15T12:43:42.442Z,11.05
2018-12-15T12:48:54.633Z,9.70
2018-12-15T12:54:31.462Z,11.30
2018-12-15T12:59:42.659Z,10.95
2018-12-15T13:04:54.426Z,12.95
2018-12-15T13:10:11.312Z,11.08
2018-12-15T13:15:22.755Z,14.55
2018-12-15T13:20:57.299Z,42.05
2018-12-15T13:26:08.809Z,105.27
2018-12-15T13:31:20.751Z,94.42
2018-12-15T13:36:33.622Z,104.30
2018-12-15T13:41:44.798Z,110.42
2018-12-15T13:47:09.561Z,90.97
2018-12-15T13:57:31.792Z,75.72
2018-12-15T14:02:47.604Z,79.80
2018-12-15T15:35:46.647Z,48.73
2018-12-15T15:40:59.691Z,47.95
2018-12-15T15:46:10.902Z,41.83
2018-12-15T15:51:29.410Z,39.58
2018-12-15T15:56:41.312Z,41.58
2018-12-15T16:07:45.225Z,37.40
2018-12-15T16:12:55.600Z,44.33
2018-12-15T16:18:06.647Z,38.48
2018-12-15T16:23:17.771Z,36.98
2018-12-15T16:28:28.729Z,37.65
2018-12-15T16:33:39.859Z,33.23
2018-12-15T16:38:50.710Z,37.50
2018-12-15T16:44:11.900Z,36.10
2018-12-15T16:49:24.061Z,32.67
2018-12-15T16:54:52.223Z,32.35
2018-12-15T17:00:13.800Z,33.02
2018-12-15T17:05:24.860Z,29.90
2018-12-15T17:10:39.777Z,26.17
2018-12-15T17:15:51.331Z,23.10
2018-12-15T17:21:04.617Z,21.07
2018-12-15T17:26:15.985Z,24.52
2018-12-15T17:37:12.222Z,21.15
2018-12-15T17:42:22.625Z,23.18
2018-12-15T17:47:34.579Z,24.12
2018-12-15T17:58:14.714Z,22.82
2018-12-15T18:03:29.648Z,23.70
2018-12-15T18:08:40.755Z,22.70
2018-12-15T18:13:52.470Z,22.80
2018-12-15T18:19:03.801Z,22.82
2018-12-15T18:24:14.783Z,23.70
2018-12-15T18:29:26.317Z,23.87
2018-12-15T18:34:37.784Z,20.62
2018-12-15T18:39:52.314Z,21.17
2018-12-15T18:45:04.489Z,20.92
2018-12-15T18:50:18.841Z,18.80
2018-12-15T18:55:31.761Z,18.37
2018-12-15T19:00:43.229Z,19.48
2018-12-15T19:16:59.882Z,19.07
2018-12-15T19:22:21.563Z,18.40
2018-12-15T19:27:34.622Z,19.85
2018-12-15T19:32:46.318Z,18.50
2018-12-15T19:37:57.762Z,18.80
2018-12-15T19:43:24.787Z,18.40
2018-12-15T19:54:14.705Z,16.75
2018-12-15T19:59:27.591Z,16.40
